sensor_id;sensor_type;location;lat;lon;timestamp;pressure;altitude;pressure_sealevel;temperature
28305;BMP280;15569;42.652;23.040;2023-03-01T00:01:45;93292.56;;;9.15
28305;BMP280;15569;42.652;23.040;2023-03-01T00:04:11;93299.78;;;9.34
28305;BMP280;15569;42.652;23.040;2023-03-01T00:06:36;93305.13;;;9.55
28305;BMP280;15569;42.652;23.040;2023-03-01T00:09:03;93289.91;;;8.94
28305;BMP280;15569;42.652;23.040;2023-03-01T00:11:30;93293.06;;;9.35
28305;BMP280;15569;42.652;23.040;2023-03-01T00:13:58;93290.19;;;9.10
28305;BMP280;15569;42.652;23.040;2023-03-01T00:16:32;93288.38;;;9.47
28305;BMP280;15569;42.652;23.040;2023-03-01T00:19:01;93279.78;;;9.62
28305;BMP280;15569;42.652;23.040;2023-03-01T00:21:27;93286.28;;;9.57
28305;BMP280;15569;42.652;23.040;2023-03-01T00:23:53;93265.81;;;9.21
28305;BMP280;15569;42.652;23.040;2023-03-01T00:26:20;93283.66;;;9.47
28305;BMP280;15569;42.652;23.040;2023-03-01T00:28:47;93279.44;;;9.56
28305;BMP280;15569;42.652;23.040;2023-03-01T00:31:18;93275.63;;;9.38
28305;BMP280;15569;42.652;23.040;2023-03-01T00:33:43;93271.16;;;9.42
28305;BMP280;15569;42.652;23.040;2023-03-01T00:36:10;93255.81;;;9.47
28305;BMP280;15569;42.652;23.040;2023-03-01T00:38:37;93272.84;;;9.59
28305;BMP280;15569;42.652;23.040;2023-03-01T00:41:05;93257.00;;;9.44
28305;BMP280;15569;42.652;23.040;2023-03-01T00:43:30;93260.41;;;9.33
28305;BMP280;15569;42.652;23.040;2023-03-01T00:46:01;93255.56;;;9.43
28305;BMP280;15569;42.652;23.040;2023-03-01T00:48:26;93278.22;;;9.36
28305;BMP280;15569;42.652;23.040;2023-03-01T00:50:51;93285.53;;;9.33
28305;BMP280;15569;42.652;23.040;2023-03-01T00:53:17;93290.31;;;9.68
28305;BMP280;15569;42.652;23.040;2023-03-01T00:55:42;93300.66;;;9.60
28305;BMP280;15569;42.652;23.040;2023-03-01T00:58:07;93290.16;;;10.00
28305;BMP280;15569;42.652;23.040;2023-03-01T01:00:33;93295.94;;;10.18
28305;BMP280;15569;42.652;23.040;2023-03-01T01:02:58;93293.31;;;10.32
28305;BMP280;15569;42.652;23.040;2023-03-01T01:05:24;93293.78;;;10.28
28305;BMP280;15569;42.652;23.040;2023-03-01T01:07:49;93295.41;;;10.45
28305;BMP280;15569;42.652;23.040;2023-03-01T01:10:15;93293.34;;;10.08
28305;BMP280;15569;42.652;23.040;2023-03-01T01:12:43;93300.16;;;10.32
28305;BMP280;15569;42.652;23.040;2023-03-01T01:15:09;93291.44;;;10.34
28305;BMP280;15569;42.652;23.040;2023-03-01T01:17:38;93280.69;;;10.24
28305;BMP280;15569;42.652;23.040;2023-03-01T01:20:03;93261.00;;;10.01
28305;BMP280;15569;42.652;23.040;2023-03-01T01:22:29;93279.66;;;10.06
28305;BMP280;15569;42.652;23.040;2023-03-01T01:24:54;93274.94;;;10.07
28305;BMP280;15569;42.652;23.040;2023-03-01T01:27:20;93271.03;;;10.10
28305;BMP280;15569;42.652;23.040;2023-03-01T01:29:45;93269.84;;;10.13
28305;BMP280;15569;42.652;23.040;2023-03-01T01:32:10;93265.03;;;9.53
28305;BMP280;15569;42.652;23.040;2023-03-01T01:34:36;93272.34;;;9.86
28305;BMP280;15569;42.652;23.040;2023-03-01T01:37:01;93266.69;;;9.47
28305;BMP280;15569;42.652;23.040;2023-03-01T01:39:28;93272.81;;;9.36
28305;BMP280;15569;42.652;23.040;2023-03-01T01:41:53;93268.19;;;9.27
28305;BMP280;15569;42.652;23.040;2023-03-01T01:44:24;93285.56;;;9.57
28305;BMP280;15569;42.652;23.040;2023-03-01T01:47:20;93279.53;;;9.58
28305;BMP280;15569;42.652;23.040;2023-03-01T01:49:50;93282.28;;;9.81
28305;BMP280;15569;42.652;23.040;2023-03-01T01:52:20;93281.78;;;10.08
28305;BMP280;15569;42.652;23.040;2023-03-01T01:54:53;93283.09;;;9.95
28305;BMP280;15569;42.652;23.040;2023-03-01T01:57:23;93276.09;;;10.27
28305;BMP280;15569;42.652;23.040;2023-03-01T01:59:57;93257.59;;;10.00
28305;BMP280;15569;42.652;23.040;2023-03-01T02:02:24;93246.56;;;10.21
28305;BMP280;15569;42.652;23.040;2023-03-01T02:04:54;93234.69;;;9.80
28305;BMP280;15569;42.652;23.040;2023-03-01T02:07:24;93248.91;;;10.27
28305;BMP280;15569;42.652;23.040;2023-03-01T02:09:51;93250.41;;;10.42
28305;BMP280;15569;42.652;23.040;2023-03-01T02:12:20;93246.47;;;9.96
28305;BMP280;15569;42.652;23.040;2023-03-01T02:14:46;93243.00;;;10.30
28305;BMP280;15569;42.652;23.040;2023-03-01T02:17:13;93236.69;;;10.40
28305;BMP280;15569;42.652;23.040;2023-03-01T02:22:33;93245.53;;;10.52
28305;BMP280;15569;42.652;23.040;2023-03-01T02:25:19;93241.59;;;10.55
28305;BMP280;15569;42.652;23.040;2023-03-01T02:30:29;93233.94;;;10.51
28305;BMP280;15569;42.652;23.040;2023-03-01T02:32:56;93229.56;;;10.58
28305;BMP280;15569;42.652;23.040;2023-03-01T02:35:31;93241.44;;;10.76
28305;BMP280;15569;42.652;23.040;2023-03-01T02:37:57;93244.00;;;10.74
28305;BMP280;15569;42.652;23.040;2023-03-01T02:40:28;93241.13;;;10.83
28305;BMP280;15569;42.652;23.040;2023-03-01T02:42:57;93241.28;;;10.74
28305;BMP280;15569;42.652;23.040;2023-03-01T02:45:24;93247.69;;;10.42
28305;BMP280;15569;42.652;23.040;2023-03-01T02:47:49;93247.09;;;10.43
28305;BMP280;15569;42.652;23.040;2023-03-01T02:56:01;93256.19;;;9.76
28305;BMP280;15569;42.652;23.040;2023-03-01T02:58:26;93253.97;;;9.84
28305;BMP280;15569;42.652;23.040;2023-03-01T03:00:52;93252.88;;;10.01
28305;BMP280;15569;42.652;23.040;2023-03-01T03:03:19;93235.53;;;9.83
28305;BMP280;15569;42.652;23.040;2023-03-01T03:05:45;93240.94;;;9.94
28305;BMP280;15569;42.652;23.040;2023-03-01T03:08:11;93250.34;;;10.16
28305;BMP280;15569;42.652;23.040;2023-03-01T03:10:40;93247.16;;;10.08
28305;BMP280;15569;42.652;23.040;2023-03-01T03:13:09;93243.25;;;10.23
28305;BMP280;15569;42.652;23.040;2023-03-01T03:15:35;93243.75;;;9.96
28305;BMP280;15569;42.652;23.040;2023-03-01T03:18:08;93249.63;;;10.27
28305;BMP280;15569;42.652;23.040;2023-03-01T03:20:34;93244.28;;;9.81
28305;BMP280;15569;42.652;23.040;2023-03-01T03:23:00;93237.19;;;9.65
28305;BMP280;15569;42.652;23.040;2023-03-01T03:25:27;93234.56;;;9.43
28305;BMP280;15569;42.652;23.040;2023-03-01T03:27:53;93234.75;;;10.05
28305;BMP280;15569;42.652;23.040;2023-03-01T03:30:24;93232.94;;;9.38
28305;BMP280;15569;42.652;23.040;2023-03-01T03:32:50;93223.97;;;9.71
28305;BMP280;15569;42.652;23.040;2023-03-01T03:35:30;93236.09;;;9.35
28305;BMP280;15569;42.652;23.040;2023-03-01T03:37:57;93244.94;;;9.35
28305;BMP280;15569;42.652;23.040;2023-03-01T03:40:39;93248.72;;;9.42
28305;BMP280;15569;42.652;23.040;2023-03-01T03:43:07;93247.59;;;9.68
28305;BMP280;15569;42.652;23.040;2023-03-01T03:45:34;93243.31;;;9.88
28305;BMP280;15569;42.652;23.040;2023-03-01T03:48:01;93252.50;;;10.06
28305;BMP280;15569;42.652;23.040;2023-03-01T03:50:26;93255.00;;;9.79
28305;BMP280;15569;42.652;23.040;2023-03-01T03:52:52;93249.31;;;9.87
28305;BMP280;15569;42.652;23.040;2023-03-01T03:55:18;93251.81;;;9.60
28305;BMP280;15569;42.652;23.040;2023-03-01T03:57:46;93250.53;;;9.72
28305;BMP280;15569;42.652;23.040;2023-03-01T04:00:21;93261.28;;;9.93
28305;BMP280;15569;42.652;23.040;2023-03-01T04:02:47;93260.41;;;10.02
28305;BMP280;15569;42.652;23.040;2023-03-01T04:05:15;93259.78;;;10.27
28305;BMP280;15569;42.652;23.040;2023-03-01T04:07:41;93264.38;;;10.36
28305;BMP280;15569;42.652;23.040;2023-03-01T04:10:10;93251.13;;;10.30
28305;BMP280;15569;42.652;23.040;2023-03-01T04:12:36;93248.41;;;10.30
28305;BMP280;15569;42.652;23.040;2023-03-01T04:15:06;93255.41;;;10.34
28305;BMP280;15569;42.652;23.040;2023-03-01T04:17:45;93261.19;;;10.28
28305;BMP280;15569;42.652;23.040;2023-03-01T04:20:13;93262.44;;;9.90
28305;BMP280;15569;42.652;23.040;2023-03-01T04:22:42;93261.97;;;9.82
28305;BMP280;15569;42.652;23.040;2023-03-01T04:25:11;93257.13;;;9.69
28305;BMP280;15569;42.652;23.040;2023-03-01T04:27:39;93268.34;;;9.75
28305;BMP280;15569;42.652;23.040;2023-03-01T05:16:35;93263.97;;;9.47
28305;BMP280;15569;42.652;23.040;2023-03-01T05:19:02;93262.59;;;9.25
28305;BMP280;15569;42.652;23.040;2023-03-01T05:21:37;93265.50;;;9.50
28305;BMP280;15569;42.652;23.040;2023-03-01T05:24:22;93259.94;;;9.36
28305;BMP280;15569;42.652;23.040;2023-03-01T05:26:48;93269.66;;;9.07
28305;BMP280;15569;42.652;23.040;2023-03-01T05:29:13;93276.38;;;9.06
28305;BMP280;15569;42.652;23.040;2023-03-01T05:31:38;93258.13;;;9.18
28305;BMP280;15569;42.652;23.040;2023-03-01T05:34:04;93254.63;;;9.62
28305;BMP280;15569;42.652;23.040;2023-03-01T05:36:29;93260.78;;;9.39
28305;BMP280;15569;42.652;23.040;2023-03-01T05:38:55;93254.19;;;8.98
28305;BMP280;15569;42.652;23.040;2023-03-01T05:41:20;93257.91;;;9.14
28305;BMP280;15569;42.652;23.040;2023-03-01T05:43:46;93273.50;;;9.36
28305;BMP280;15569;42.652;23.040;2023-03-01T05:46:11;93272.94;;;8.94
28305;BMP280;15569;42.652;23.040;2023-03-01T05:48:38;93280.22;;;8.91
28305;BMP280;15569;42.652;23.040;2023-03-01T05:51:04;93295.63;;;9.10
28305;BMP280;15569;42.652;23.040;2023-03-01T05:53:29;93289.47;;;8.76
28305;BMP280;15569;42.652;23.040;2023-03-01T05:55:55;93295.28;;;8.82
28305;BMP280;15569;42.652;23.040;2023-03-01T05:58:20;93298.41;;;9.00
28305;BMP280;15569;42.652;23.040;2023-03-01T06:00:47;93295.81;;;9.02
28305;BMP280;15569;42.652;23.040;2023-03-01T06:03:15;93304.22;;;8.73
28305;BMP280;15569;42.652;23.040;2023-03-01T06:05:42;93312.88;;;8.93
28305;BMP280;15569;42.652;23.040;2023-03-01T06:08:09;93308.19;;;8.72
28305;BMP280;15569;42.652;23.040;2023-03-01T06:10:35;93307.00;;;8.97
28305;BMP280;15569;42.652;23.040;2023-03-01T06:13:00;93307.03;;;9.08
28305;BMP280;15569;42.652;23.040;2023-03-01T06:15:26;93310.41;;;8.97
28305;BMP280;15569;42.652;23.040;2023-03-01T06:17:54;93320.03;;;9.10
28305;BMP280;15569;42.652;23.040;2023-03-01T06:20:24;93330.88;;;9.10
28305;BMP280;15569;42.652;23.040;2023-03-01T06:22:50;93317.69;;;9.16
28305;BMP280;15569;42.652;23.040;2023-03-01T06:25:21;93323.41;;;8.77
28305;BMP280;15569;42.652;23.040;2023-03-01T06:27:47;93319.16;;;8.53
28305;BMP280;15569;42.652;23.040;2023-03-01T06:30:15;93325.31;;;8.54
28305;BMP280;15569;42.652;23.040;2023-03-01T06:32:42;93322.47;;;9.06
28305;BMP280;15569;42.652;23.040;2023-03-01T06:35:08;93328.31;;;8.69
28305;BMP280;15569;42.652;23.040;2023-03-01T06:37:33;93320.75;;;8.89
28305;BMP280;15569;42.652;23.040;2023-03-01T06:40:00;93323.19;;;8.52
28305;BMP280;15569;42.652;23.040;2023-03-01T06:42:29;93315.66;;;9.05
28305;BMP280;15569;42.652;23.040;2023-03-01T06:44:55;93331.44;;;9.08
28305;BMP280;15569;42.652;23.040;2023-03-01T06:47:20;93333.06;;;9.02
28305;BMP280;15569;42.652;23.040;2023-03-01T06:49:45;93343.09;;;9.43
28305;BMP280;15569;42.652;23.040;2023-03-01T06:52:11;93329.56;;;9.11
28305;BMP280;15569;42.652;23.040;2023-03-01T06:54:36;93324.31;;;9.24
28305;BMP280;15569;42.652;23.040;2023-03-01T06:57:02;93330.34;;;9.23
28305;BMP280;15569;42.652;23.040;2023-03-01T06:59:27;93339.59;;;9.52
28305;BMP280;15569;42.652;23.040;2023-03-01T07:01:52;93328.91;;;9.22
28305;BMP280;15569;42.652;23.040;2023-03-01T07:04:18;93326.38;;;8.81
28305;BMP280;15569;42.652;23.040;2023-03-01T07:06:43;93333.19;;;8.71
28305;BMP280;15569;42.652;23.040;2023-03-01T07:09:09;93328.63;;;9.06
28305;BMP280;15569;42.652;23.040;2023-03-01T07:11:34;93329.94;;;9.17
28305;BMP280;15569;42.652;23.040;2023-03-01T07:13:59;93333.69;;;9.44
28305;BMP280;15569;42.652;23.040;2023-03-01T07:19:10;93330.13;;;9.42
28305;BMP280;15569;42.652;23.040;2023-03-01T07:21:36;93330.59;;;9.38
28305;BMP280;15569;42.652;23.040;2023-03-01T07:24:05;93330.09;;;9.75
28305;BMP280;15569;42.652;23.040;2023-03-01T07:26:31;93320.50;;;9.97
28305;BMP280;15569;42.652;23.040;2023-03-01T07:28:59;93335.75;;;9.90
28305;BMP280;15569;42.652;23.040;2023-03-01T07:31:24;93325.22;;;9.96
28305;BMP280;15569;42.652;23.040;2023-03-01T07:33:52;93328.78;;;10.10
28305;BMP280;15569;42.652;23.040;2023-03-01T07:36:18;93333.13;;;9.69
28305;BMP280;15569;42.652;23.040;2023-03-01T07:38:43;93329.25;;;10.18
28305;BMP280;15569;42.652;23.040;2023-03-01T07:41:09;93329.72;;;9.80
28305;BMP280;15569;42.652;23.040;2023-03-01T07:43:34;93310.25;;;9.72
28305;BMP280;15569;42.652;23.040;2023-03-01T07:46:00;93319.13;;;9.84
28305;BMP280;15569;42.652;23.040;2023-03-01T07:48:26;93326.38;;;10.28
28305;BMP280;15569;42.652;23.040;2023-03-01T07:50:52;93316.94;;;10.29
28305;BMP280;15569;42.652;23.040;2023-03-01T07:53:17;93321.69;;;10.05
28305;BMP280;15569;42.652;23.040;2023-03-01T07:55:42;93319.94;;;9.98
28305;BMP280;15569;42.652;23.040;2023-03-01T07:58:08;93322.94;;;10.51
28305;BMP280;15569;42.652;23.040;2023-03-01T08:00:33;93301.78;;;10.49
28305;BMP280;15569;42.652;23.040;2023-03-01T08:02:59;93316.94;;;10.29
28305;BMP280;15569;42.652;23.040;2023-03-01T08:05:26;93319.31;;;10.35
28305;BMP280;15569;42.652;23.040;2023-03-01T08:07:51;93310.94;;;10.07
28305;BMP280;15569;42.652;23.040;2023-03-01T08:10:17;93314.28;;;10.54
28305;BMP280;15569;42.652;23.040;2023-03-01T08:12:42;93325.00;;;10.15
28305;BMP280;15569;42.652;23.040;2023-03-01T08:15:08;93327.31;;;10.44
28305;BMP280;15569;42.652;23.040;2023-03-01T08:17:34;93309.81;;;10.59
28305;BMP280;15569;42.652;23.040;2023-03-01T08:19:59;93310.50;;;10.11
28305;BMP280;15569;42.652;23.040;2023-03-01T08:22:24;93300.88;;;10.21
28305;BMP280;15569;42.652;23.040;2023-03-01T08:24:50;93319.06;;;10.42
28305;BMP280;15569;42.652;23.040;2023-03-01T08:27:18;93312.00;;;10.62
28305;BMP280;15569;42.652;23.040;2023-03-01T08:29:44;93304.81;;;10.18
28305;BMP280;15569;42.652;23.040;2023-03-01T08:32:09;93307.25;;;10.38
28305;BMP280;15569;42.652;23.040;2023-03-01T08:34:34;93302.84;;;10.56
28305;BMP280;15569;42.652;23.040;2023-03-01T08:37:00;93302.81;;;10.67
28305;BMP280;15569;42.652;23.040;2023-03-01T08:39:26;93319.84;;;10.93
28305;BMP280;15569;42.652;23.040;2023-03-01T08:41:52;93309.56;;;11.17
28305;BMP280;15569;42.652;23.040;2023-03-01T08:44:17;93305.94;;;11.12
28305;BMP280;15569;42.652;23.040;2023-03-01T08:46:43;93304.63;;;11.13
28305;BMP280;15569;42.652;23.040;2023-03-01T08:49:15;93311.19;;;11.22
28305;BMP280;15569;42.652;23.040;2023-03-01T08:51:41;93304.06;;;11.28
28305;BMP280;15569;42.652;23.040;2023-03-01T08:54:11;93320.63;;;11.46
28305;BMP280;15569;42.652;23.040;2023-03-01T08:56:37;93311.56;;;11.41
28305;BMP280;15569;42.652;23.040;2023-03-01T08:59:03;93308.66;;;11.51
28305;BMP280;15569;42.652;23.040;2023-03-01T09:01:29;93305.97;;;11.64
28305;BMP280;15569;42.652;23.040;2023-03-01T09:03:54;93289.69;;;11.53
28305;BMP280;15569;42.652;23.040;2023-03-01T09:06:20;93299.78;;;11.50
28305;BMP280;15569;42.652;23.040;2023-03-01T09:08:47;93299.03;;;11.75
28305;BMP280;15569;42.652;23.040;2023-03-01T09:11:16;93297.50;;;11.85
28305;BMP280;15569;42.652;23.040;2023-03-01T09:13:42;93298.81;;;11.98
28305;BMP280;15569;42.652;23.040;2023-03-01T09:16:08;93298.31;;;12.15
28305;BMP280;15569;42.652;23.040;2023-03-01T09:21:39;93302.84;;;11.83
28305;BMP280;15569;42.652;23.040;2023-03-01T09:24:04;93296.19;;;11.59
28305;BMP280;15569;42.652;23.040;2023-03-01T09:26:30;93288.59;;;11.44
28305;BMP280;15569;42.652;23.040;2023-03-01T09:28:56;93305.34;;;10.88
28305;BMP280;15569;42.652;23.040;2023-03-01T09:31:23;93301.22;;;11.26
28305;BMP280;15569;42.652;23.040;2023-03-01T09:33:51;93295.38;;;11.57
28305;BMP280;15569;42.652;23.040;2023-03-01T09:36:19;93290.81;;;11.61
28305;BMP280;15569;42.652;23.040;2023-03-01T09:38:46;93295.09;;;10.75
28305;BMP280;15569;42.652;23.040;2023-03-01T09:46:44;93289.50;;;11.62
28305;BMP280;15569;42.652;23.040;2023-03-01T09:49:17;93287.56;;;11.51
28305;BMP280;15569;42.652;23.040;2023-03-01T09:51:54;93293.34;;;11.71
28305;BMP280;15569;42.652;23.040;2023-03-01T09:54:20;93279.44;;;11.78
28305;BMP280;15569;42.652;23.040;2023-03-01T10:02:46;93281.13;;;12.26
28305;BMP280;15569;42.652;23.040;2023-03-01T10:05:31;93264.00;;;11.97
28305;BMP280;15569;42.652;23.040;2023-03-01T10:10:46;93252.78;;;12.60
28305;BMP280;15569;42.652;23.040;2023-03-01T10:16:14;93263.22;;;13.24
28305;BMP280;15569;42.652;23.040;2023-03-01T10:18:44;93255.28;;;13.30
28305;BMP280;15569;42.652;23.040;2023-03-01T10:21:16;93252.44;;;13.13
28305;BMP280;15569;42.652;23.040;2023-03-01T10:23:43;93253.13;;;13.76
28305;BMP280;15569;42.652;23.040;2023-03-01T10:29:08;93248.22;;;13.25
28305;BMP280;15569;42.652;23.040;2023-03-01T10:31:48;93248.84;;;13.39
28305;BMP280;15569;42.652;23.040;2023-03-01T10:34:17;93245.78;;;13.47
28305;BMP280;15569;42.652;23.040;2023-03-01T10:36:46;93237.72;;;12.89
28305;BMP280;15569;42.652;23.040;2023-03-01T10:39:16;93244.16;;;12.66
28305;BMP280;15569;42.652;23.040;2023-03-01T10:44:46;93245.25;;;12.45
28305;BMP280;15569;42.652;23.040;2023-03-01T10:47:25;93217.41;;;12.33
28305;BMP280;15569;42.652;23.040;2023-03-01T10:49:55;93238.09;;;12.52
28305;BMP280;15569;42.652;23.040;2023-03-01T10:52:28;93240.50;;;12.75
28305;BMP280;15569;42.652;23.040;2023-03-01T10:55:00;93238.09;;;12.67
28305;BMP280;15569;42.652;23.040;2023-03-01T10:57:36;93227.19;;;12.67
28305;BMP280;15569;42.652;23.040;2023-03-01T11:00:15;93232.47;;;12.63
28305;BMP280;15569;42.652;23.040;2023-03-01T11:02:48;93235.34;;;12.38
28305;BMP280;15569;42.652;23.040;2023-03-01T11:07:56;93229.97;;;12.54
28305;BMP280;15569;42.652;23.040;2023-03-01T11:10:33;93234.22;;;12.57
28305;BMP280;15569;42.652;23.040;2023-03-01T11:13:08;93240.41;;;12.73
28305;BMP280;15569;42.652;23.040;2023-03-01T11:15:34;93240.81;;;12.67
28305;BMP280;15569;42.652;23.040;2023-03-01T11:18:00;93236.75;;;12.82
28305;BMP280;15569;42.652;23.040;2023-03-01T11:20:30;93234.88;;;12.71
28305;BMP280;15569;42.652;23.040;2023-03-01T11:23:11;93220.91;;;12.07
28305;BMP280;15569;42.652;23.040;2023-03-01T11:25:41;93214.72;;;12.20
28305;BMP280;15569;42.652;23.040;2023-03-01T11:28:12;93208.16;;;12.54
28305;BMP280;15569;42.652;23.040;2023-03-01T11:33:43;93202.47;;;12.63
28305;BMP280;15569;42.652;23.040;2023-03-01T11:38:38;93201.69;;;12.77
28305;BMP280;15569;42.652;23.040;2023-03-01T11:41:08;93191.84;;;12.70
28305;BMP280;15569;42.652;23.040;2023-03-01T11:43:56;93208.06;;;13.12
28305;BMP280;15569;42.652;23.040;2023-03-01T11:56:57;93181.03;;;13.18
28305;BMP280;15569;42.652;23.040;2023-03-01T12:20:34;93178.38;;;14.90
28305;BMP280;15569;42.652;23.040;2023-03-01T12:50:47;93164.56;;;13.47
28305;BMP280;15569;42.652;23.040;2023-03-01T12:53:23;93164.06;;;13.04
28305;BMP280;15569;42.652;23.040;2023-03-01T12:55:50;93161.91;;;13.18
28305;BMP280;15569;42.652;23.040;2023-03-01T13:03:39;93170.84;;;12.72
28305;BMP280;15569;42.652;23.040;2023-03-01T13:06:12;93173.59;;;12.43
28305;BMP280;15569;42.652;23.040;2023-03-01T13:08:49;93170.16;;;13.03
28305;BMP280;15569;42.652;23.040;2023-03-01T13:11:18;93167.56;;;13.07
28305;BMP280;15569;42.652;23.040;2023-03-01T13:13:44;93165.97;;;12.86
28305;BMP280;15569;42.652;23.040;2023-03-01T13:19:18;93156.66;;;12.76
28305;BMP280;15569;42.652;23.040;2023-03-01T13:21:55;93170.88;;;12.58
28305;BMP280;15569;42.652;23.040;2023-03-01T13:24:36;93157.16;;;12.56
28305;BMP280;15569;42.652;23.040;2023-03-01T13:27:22;93168.91;;;12.90
28305;BMP280;15569;42.652;23.040;2023-03-01T13:29:55;93150.31;;;12.87
28305;BMP280;15569;42.652;23.040;2023-03-01T13:32:25;93163.22;;;12.26
28305;BMP280;15569;42.652;23.040;2023-03-01T13:37:37;93152.97;;;12.85
28305;BMP280;15569;42.652;23.040;2023-03-01T13:45:50;93147.84;;;12.77
28305;BMP280;15569;42.652;23.040;2023-03-01T13:48:24;93155.84;;;12.73
28305;BMP280;15569;42.652;23.040;2023-03-01T13:50:58;93150.06;;;13.12
28305;BMP280;15569;42.652;23.040;2023-03-01T13:53:27;93152.97;;;13.16
28305;BMP280;15569;42.652;23.040;2023-03-01T13:55:56;93132.75;;;13.05
28305;BMP280;15569;42.652;23.040;2023-03-01T13:58:32;93145.84;;;13.09
28305;BMP280;15569;42.652;23.040;2023-03-01T14:01:06;93133.84;;;13.00
28305;BMP280;15569;42.652;23.040;2023-03-01T14:03:34;93142.75;;;13.16
28305;BMP280;15569;42.652;23.040;2023-03-01T14:06:16;93130.84;;;13.25
28305;BMP280;15569;42.652;23.040;2023-03-01T14:08:46;93142.22;;;13.20
28305;BMP280;15569;42.652;23.040;2023-03-01T14:14:29;93137.38;;;12.87
28305;BMP280;15569;42.652;23.040;2023-03-01T14:19:35;93138.91;;;12.90
28305;BMP280;15569;42.652;23.040;2023-03-01T14:24:50;93136.56;;;13.31
28305;BMP280;15569;42.652;23.040;2023-03-01T14:27:16;93127.63;;;12.98
28305;BMP280;15569;42.652;23.040;2023-03-01T14:29:42;93136.22;;;12.61
28305;BMP280;15569;42.652;23.040;2023-03-01T14:34:36;93141.00;;;13.07
28305;BMP280;15569;42.652;23.040;2023-03-01T14:37:34;93140.13;;;12.87
28305;BMP280;15569;42.652;23.040;2023-03-01T14:40:02;93134.84;;;12.76
28305;BMP280;15569;42.652;23.040;2023-03-01T14:42:31;93133.78;;;12.83
28305;BMP280;15569;42.652;23.040;2023-03-01T14:45:00;93136.88;;;12.91
28305;BMP280;15569;42.652;23.040;2023-03-01T14:47:28;93135.72;;;12.96
28305;BMP280;15569;42.652;23.040;2023-03-01T14:50:01;93130.66;;;12.59
28305;BMP280;15569;42.652;23.040;2023-03-01T14:52:36;93140.09;;;12.56
28305;BMP280;15569;42.652;23.040;2023-03-01T14:55:05;93137.53;;;12.60
28305;BMP280;15569;42.652;23.040;2023-03-01T14:57:30;93145.91;;;12.64
28305;BMP280;15569;42.652;23.040;2023-03-01T15:00:03;93145.66;;;12.29
28305;BMP280;15569;42.652;23.040;2023-03-01T15:02:32;93124.47;;;11.84
28305;BMP280;15569;42.652;23.040;2023-03-01T15:05:01;93146.63;;;12.35
28305;BMP280;15569;42.652;23.040;2023-03-01T15:07:36;93138.97;;;12.32
28305;BMP280;15569;42.652;23.040;2023-03-01T15:10:05;93122.31;;;12.10
28305;BMP280;15569;42.652;23.040;2023-03-01T15:14:56;93133.28;;;12.41
28305;BMP280;15569;42.652;23.040;2023-03-01T15:17:30;93115.28;;;12.21
28305;BMP280;15569;42.652;23.040;2023-03-01T15:19:56;93124.75;;;11.91
28305;BMP280;15569;42.652;23.040;2023-03-01T15:22:23;93135.09;;;12.21
28305;BMP280;15569;42.652;23.040;2023-03-01T15:24:50;93129.50;;;11.90
28305;BMP280;15569;42.652;23.040;2023-03-01T15:27:20;93118.38;;;12.00
28305;BMP280;15569;42.652;23.040;2023-03-01T15:29:59;93115.66;;;12.00
28305;BMP280;15569;42.652;23.040;2023-03-01T15:32:33;93122.16;;;11.93
28305;BMP280;15569;42.652;23.040;2023-03-01T15:35:01;93134.13;;;11.72
28305;BMP280;15569;42.652;23.040;2023-03-01T15:37:46;93130.25;;;11.63
28305;BMP280;15569;42.652;23.040;2023-03-01T15:40:23;93126.72;;;11.88
28305;BMP280;15569;42.652;23.040;2023-03-01T15:42:59;93119.78;;;11.71
28305;BMP280;15569;42.652;23.040;2023-03-01T15:45:27;93120.41;;;11.56
28305;BMP280;15569;42.652;23.040;2023-03-01T15:48:14;93112.09;;;11.68
28305;BMP280;15569;42.652;23.040;2023-03-01T15:50:40;93115.09;;;11.88
28305;BMP280;15569;42.652;23.040;2023-03-01T15:53:09;93112.38;;;11.88
28305;BMP280;15569;42.652;23.040;2023-03-01T15:55:36;93117.88;;;11.74
28305;BMP280;15569;42.652;23.040;2023-03-01T15:58:21;93117.78;;;11.31
28305;BMP280;15569;42.652;23.040;2023-03-01T16:00:47;93115.84;;;11.74
28305;BMP280;15569;42.652;23.040;2023-03-01T16:03:14;93123.38;;;11.90
28305;BMP280;15569;42.652;23.040;2023-03-01T16:05:47;93112.09;;;11.68
28305;BMP280;15569;42.652;23.040;2023-03-01T16:08:12;93111.66;;;11.44
28305;BMP280;15569;42.652;23.040;2023-03-01T16:10:39;93119.38;;;11.63
28305;BMP280;15569;42.652;23.040;2023-03-01T16:13:05;93089.78;;;11.42
28305;BMP280;15569;42.652;23.040;2023-03-01T16:15:33;93105.06;;;10.95
28305;BMP280;15569;42.652;23.040;2023-03-01T16:18:02;93120.88;;;10.85
28305;BMP280;15569;42.652;23.040;2023-03-01T16:20:29;93115.06;;;11.18
28305;BMP280;15569;42.652;23.040;2023-03-01T16:22:58;93099.66;;;11.22
28305;BMP280;15569;42.652;23.040;2023-03-01T16:25:25;93107.59;;;11.45
28305;BMP280;15569;42.652;23.040;2023-03-01T16:27:51;93100.25;;;11.34
28305;BMP280;15569;42.652;23.040;2023-03-01T16:30:20;93104.53;;;10.58
28305;BMP280;15569;42.652;23.040;2023-03-01T16:32:46;93103.59;;;11.05
28305;BMP280;15569;42.652;23.040;2023-03-01T16:35:14;93107.94;;;10.58
28305;BMP280;15569;42.652;23.040;2023-03-01T16:37:40;93098.19;;;10.67
28305;BMP280;15569;42.652;23.040;2023-03-01T16:40:20;93109.50;;;10.88
28305;BMP280;15569;42.652;23.040;2023-03-01T16:42:47;93114.00;;;10.70
28305;BMP280;15569;42.652;23.040;2023-03-01T16:45:13;93118.44;;;10.77
28305;BMP280;15569;42.652;23.040;2023-03-01T16:47:38;93110.50;;;10.95
28305;BMP280;15569;42.652;23.040;2023-03-01T16:50:04;93113.38;;;10.58
28305;BMP280;15569;42.652;23.040;2023-03-01T16:52:29;93119.25;;;10.80
28305;BMP280;15569;42.652;23.040;2023-03-01T16:54:54;93117.44;;;10.46
28305;BMP280;15569;42.652;23.040;2023-03-01T16:57:20;93122.72;;;10.55
28305;BMP280;15569;42.652;23.040;2023-03-01T16:59:45;93117.69;;;10.88
28305;BMP280;15569;42.652;23.040;2023-03-01T17:02:12;93127.06;;;10.60
28305;BMP280;15569;42.652;23.040;2023-03-01T17:04:41;93128.41;;;10.73
28305;BMP280;15569;42.652;23.040;2023-03-01T17:07:06;93128.66;;;10.26
28305;BMP280;15569;42.652;23.040;2023-03-01T17:09:36;93133.47;;;10.53
28305;BMP280;15569;42.652;23.040;2023-03-01T17:12:03;93128.69;;;10.15
28305;BMP280;15569;42.652;23.040;2023-03-01T17:14:28;93129.84;;;10.23